Terminal Aerodrome Forecast
Issued by NWS

Home | Current Version | Previous Version | Text Only | Print | Product List | Glossary On
Versions: 1 2 3 4 5 6 7 8 9 10 11 12 13 14 15
000
FTAK31 PAFA 250530
TAFABT
TAF
PABT 250530Z 2506/2606 VRB04KT P6SM BKN015 OVC030
     FM251200 VRB04KT 6SM -SHSN BR OVC015
     FM251800 VRB04KT 2SM -SHSN BR OVC015
     FM252300 VRB04KT P6SM OVC015=

USA.gov is the U.S. government's official web portal to all federal, state and local government web resources and services.